sensor_id;sensor_type;location;lat;lon;timestamp;P1;durP1;ratioP1;P2;durP2;ratioP2
17937;SDS011;16051;53.024;8.630;2022-11-20T00:00:57;13.53;;;8.87;;
17937;SDS011;16051;53.024;8.630;2022-11-20T00:05:07;13.20;;;9.10;;
17937;SDS011;16051;53.024;8.630;2022-11-20T00:09:11;15.00;;;9.40;;
17937;SDS011;16051;53.024;8.630;2022-11-20T00:13:13;11.57;;;8.33;;
17937;SDS011;16051;53.024;8.630;2022-11-20T00:17:15;11.93;;;8.53;;
17937;SDS011;16051;53.024;8.630;2022-11-20T00:21:31;13.37;;;8.87;;
17937;SDS011;16051;53.024;8.630;2022-11-20T00:25:35;12.87;;;8.43;;
17937;SDS011;16051;53.024;8.630;2022-11-20T00:29:37;11.60;;;8.07;;
17937;SDS011;16051;53.024;8.630;2022-11-20T00:33:39;12.00;;;8.73;;
17937;SDS011;16051;53.024;8.630;2022-11-20T00:37:41;12.27;;;8.27;;
17937;SDS011;16051;53.024;8.630;2022-11-20T00:41:54;12.57;;;8.23;;
17937;SDS011;16051;53.024;8.630;2022-11-20T00:45:58;13.27;;;9.07;;
17937;SDS011;16051;53.024;8.630;2022-11-20T00:50:02;14.30;;;9.43;;
17937;SDS011;16051;53.024;8.630;2022-11-20T00:54:05;14.47;;;9.27;;
17937;SDS011;16051;53.024;8.630;2022-11-20T00:58:08;17.30;;;11.27;;
17937;SDS011;16051;53.024;8.630;2022-11-20T01:02:10;22.00;;;12.83;;
17937;SDS011;16051;53.024;8.630;2022-11-20T01:06:13;16.13;;;11.33;;
17937;SDS011;16051;53.024;8.630;2022-11-20T01:10:19;18.73;;;11.70;;
17937;SDS011;16051;53.024;8.630;2022-11-20T01:14:22;15.77;;;10.57;;
17937;SDS011;16051;53.024;8.630;2022-11-20T01:18:25;16.27;;;10.57;;
17937;SDS011;16051;53.024;8.630;2022-11-20T01:22:27;14.13;;;9.63;;
17937;SDS011;16051;53.024;8.630;2022-11-20T01:26:32;14.40;;;10.03;;
17937;SDS011;16051;53.024;8.630;2022-11-20T01:30:39;12.77;;;8.70;;
17937;SDS011;16051;53.024;8.630;2022-11-20T01:34:41;11.77;;;8.73;;
17937;SDS011;16051;53.024;8.630;2022-11-20T01:38:43;12.43;;;8.80;;
17937;SDS011;16051;53.024;8.630;2022-11-20T01:42:47;13.27;;;9.23;;
17937;SDS011;16051;53.024;8.630;2022-11-20T01:47:27;14.57;;;9.33;;
17937;SDS011;16051;53.024;8.630;2022-11-20T01:51:38;14.27;;;8.73;;
17937;SDS011;16051;53.024;8.630;2022-11-20T01:55:45;16.50;;;9.40;;
17937;SDS011;16051;53.024;8.630;2022-11-20T02:00:05;12.37;;;8.20;;
17937;SDS011;16051;53.024;8.630;2022-11-20T02:04:13;13.40;;;9.03;;
17937;SDS011;16051;53.024;8.630;2022-11-20T02:08:16;12.67;;;8.37;;
17937;SDS011;16051;53.024;8.630;2022-11-20T02:12:20;13.13;;;8.13;;
17937;SDS011;16051;53.024;8.630;2022-11-20T02:16:43;13.57;;;7.90;;
17937;SDS011;16051;53.024;8.630;2022-11-20T02:20:50;11.23;;;7.73;;
17937;SDS011;16051;53.024;8.630;2022-11-20T02:25:04;11.87;;;8.60;;
17937;SDS011;16051;53.024;8.630;2022-11-20T02:29:09;12.20;;;8.43;;
17937;SDS011;16051;53.024;8.630;2022-11-20T02:33:12;12.63;;;8.33;;
17937;SDS011;16051;53.024;8.630;2022-11-20T02:37:14;12.60;;;8.20;;
17937;SDS011;16051;53.024;8.630;2022-11-20T02:41:31;16.20;;;9.90;;
17937;SDS011;16051;53.024;8.630;2022-11-20T02:45:36;14.10;;;8.80;;
17937;SDS011;16051;53.024;8.630;2022-11-20T02:54:54;21.70;;;11.07;;
17937;SDS011;16051;53.024;8.630;2022-11-20T03:03:05;15.83;;;9.40;;
17937;SDS011;16051;53.024;8.630;2022-11-20T03:07:07;15.20;;;9.57;;
17937;SDS011;16051;53.024;8.630;2022-11-20T03:11:10;14.17;;;8.77;;
17937;SDS011;16051;53.024;8.630;2022-11-20T03:15:14;13.67;;;8.43;;
17937;SDS011;16051;53.024;8.630;2022-11-20T03:19:29;12.27;;;8.23;;
17937;SDS011;16051;53.024;8.630;2022-11-20T03:23:31;13.73;;;8.53;;
17937;SDS011;16051;53.024;8.630;2022-11-20T03:27:35;13.57;;;9.03;;
17937;SDS011;16051;53.024;8.630;2022-11-20T03:31:39;12.80;;;8.23;;
17937;SDS011;16051;53.024;8.630;2022-11-20T03:35:42;15.03;;;9.43;;
17937;SDS011;16051;53.024;8.630;2022-11-20T03:39:44;12.53;;;8.67;;
17937;SDS011;16051;53.024;8.630;2022-11-20T03:43:56;16.70;;;9.77;;
17937;SDS011;16051;53.024;8.630;2022-11-20T03:48:02;17.40;;;9.60;;
17937;SDS011;16051;53.024;8.630;2022-11-20T03:52:04;14.10;;;8.27;;
17937;SDS011;16051;53.024;8.630;2022-11-20T03:56:07;14.60;;;9.07;;
17937;SDS011;16051;53.024;8.630;2022-11-20T04:00:10;15.87;;;9.07;;
17937;SDS011;16051;53.024;8.630;2022-11-20T04:04:15;14.63;;;8.13;;
17937;SDS011;16051;53.024;8.630;2022-11-20T04:08:28;12.13;;;7.97;;
17937;SDS011;16051;53.024;8.630;2022-11-20T04:12:31;13.60;;;7.33;;
17937;SDS011;16051;53.024;8.630;2022-11-20T04:16:35;11.97;;;8.03;;
17937;SDS011;16051;53.024;8.630;2022-11-20T04:20:39;12.83;;;8.07;;
17937;SDS011;16051;53.024;8.630;2022-11-20T04:24:41;9.60;;;6.97;;
17937;SDS011;16051;53.024;8.630;2022-11-20T04:28:43;12.37;;;7.73;;
17937;SDS011;16051;53.024;8.630;2022-11-20T04:32:45;12.37;;;7.47;;
17937;SDS011;16051;53.024;8.630;2022-11-20T04:36:49;10.27;;;7.37;;
17937;SDS011;16051;53.024;8.630;2022-11-20T04:40:51;12.70;;;7.30;;
17937;SDS011;16051;53.024;8.630;2022-11-20T04:44:59;13.27;;;7.57;;
17937;SDS011;16051;53.024;8.630;2022-11-20T04:49:01;13.57;;;8.20;;
17937;SDS011;16051;53.024;8.630;2022-11-20T04:53:05;14.37;;;7.80;;
17937;SDS011;16051;53.024;8.630;2022-11-20T04:57:07;13.50;;;7.70;;
17937;SDS011;16051;53.024;8.630;2022-11-20T05:01:10;16.17;;;8.30;;
17937;SDS011;16051;53.024;8.630;2022-11-20T05:05:14;16.57;;;9.07;;
17937;SDS011;16051;53.024;8.630;2022-11-20T05:09:18;16.17;;;8.80;;
17937;SDS011;16051;53.024;8.630;2022-11-20T05:13:20;15.07;;;8.93;;
17937;SDS011;16051;53.024;8.630;2022-11-20T05:17:22;18.50;;;9.37;;
17937;SDS011;16051;53.024;8.630;2022-11-20T05:21:24;16.03;;;9.40;;
17937;SDS011;16051;53.024;8.630;2022-11-20T05:25:27;14.90;;;9.27;;
17937;SDS011;16051;53.024;8.630;2022-11-20T05:29:29;16.60;;;9.10;;
17937;SDS011;16051;53.024;8.630;2022-11-20T05:33:32;13.30;;;7.87;;
17937;SDS011;16051;53.024;8.630;2022-11-20T05:37:35;12.37;;;7.63;;
17937;SDS011;16051;53.024;8.630;2022-11-20T05:41:38;12.90;;;8.00;;
17937;SDS011;16051;53.024;8.630;2022-11-20T05:45:52;11.70;;;7.47;;
17937;SDS011;16051;53.024;8.630;2022-11-20T05:49:55;13.97;;;7.60;;
17937;SDS011;16051;53.024;8.630;2022-11-20T05:53:57;11.60;;;6.87;;
17937;SDS011;16051;53.024;8.630;2022-11-20T05:58:00;9.57;;;6.57;;
17937;SDS011;16051;53.024;8.630;2022-11-20T06:02:03;8.60;;;5.90;;
17937;SDS011;16051;53.024;8.630;2022-11-20T06:06:05;11.23;;;7.63;;
17937;SDS011;16051;53.024;8.630;2022-11-20T06:14:15;9.70;;;6.73;;
17937;SDS011;16051;53.024;8.630;2022-11-20T06:18:17;10.83;;;6.50;;
17937;SDS011;16051;53.024;8.630;2022-11-20T06:22:20;10.03;;;6.00;;
17937;SDS011;16051;53.024;8.630;2022-11-20T06:26:23;8.90;;;6.60;;
17937;SDS011;16051;53.024;8.630;2022-11-20T06:30:28;8.73;;;6.53;;
17937;SDS011;16051;53.024;8.630;2022-11-20T06:34:30;7.47;;;6.10;;
17937;SDS011;16051;53.024;8.630;2022-11-20T06:38:32;8.57;;;5.77;;
17937;SDS011;16051;53.024;8.630;2022-11-20T06:46:44;9.47;;;6.20;;
17937;SDS011;16051;53.024;8.630;2022-11-20T06:50:56;8.37;;;5.73;;
17937;SDS011;16051;53.024;8.630;2022-11-20T06:54:58;9.53;;;6.47;;
17937;SDS011;16051;53.024;8.630;2022-11-20T06:59:03;9.67;;;6.33;;
17937;SDS011;16051;53.024;8.630;2022-11-20T07:03:08;9.57;;;7.07;;
17937;SDS011;16051;53.024;8.630;2022-11-20T07:07:12;10.00;;;6.60;;
17937;SDS011;16051;53.024;8.630;2022-11-20T07:11:14;8.40;;;6.10;;
17937;SDS011;16051;53.024;8.630;2022-11-20T07:15:16;9.50;;;6.37;;
17937;SDS011;16051;53.024;8.630;2022-11-20T07:19:20;12.13;;;7.60;;
17937;SDS011;16051;53.024;8.630;2022-11-20T07:23:22;9.33;;;6.50;;
17937;SDS011;16051;53.024;8.630;2022-11-20T07:27:24;9.17;;;6.40;;
17937;SDS011;16051;53.024;8.630;2022-11-20T07:31:26;9.13;;;6.63;;
17937;SDS011;16051;53.024;8.630;2022-11-20T07:35:36;11.37;;;7.83;;
17937;SDS011;16051;53.024;8.630;2022-11-20T07:39:38;13.00;;;7.77;;
17937;SDS011;16051;53.024;8.630;2022-11-20T07:43:40;8.97;;;6.13;;
17937;SDS011;16051;53.024;8.630;2022-11-20T07:47:42;10.63;;;7.70;;
17937;SDS011;16051;53.024;8.630;2022-11-20T07:51:46;10.23;;;7.13;;
17937;SDS011;16051;53.024;8.630;2022-11-20T07:55:51;12.47;;;8.03;;
17937;SDS011;16051;53.024;8.630;2022-11-20T07:59:53;11.20;;;8.27;;
17937;SDS011;16051;53.024;8.630;2022-11-20T08:03:56;11.83;;;7.40;;
17937;SDS011;16051;53.024;8.630;2022-11-20T08:08:00;11.07;;;7.23;;
17937;SDS011;16051;53.024;8.630;2022-11-20T08:12:02;11.13;;;7.70;;
17937;SDS011;16051;53.024;8.630;2022-11-20T08:16:21;11.60;;;8.07;;
17937;SDS011;16051;53.024;8.630;2022-11-20T08:20:24;9.13;;;7.40;;
17937;SDS011;16051;53.024;8.630;2022-11-20T08:24:27;11.63;;;7.30;;
17937;SDS011;16051;53.024;8.630;2022-11-20T08:28:29;11.53;;;8.27;;
17937;SDS011;16051;53.024;8.630;2022-11-20T08:32:43;15.30;;;8.30;;
17937;SDS011;16051;53.024;8.630;2022-11-20T08:36:45;10.17;;;7.03;;
17937;SDS011;16051;53.024;8.630;2022-11-20T08:40:48;10.30;;;7.23;;
17937;SDS011;16051;53.024;8.630;2022-11-20T08:49:11;10.63;;;6.90;;
17937;SDS011;16051;53.024;8.630;2022-11-20T08:53:31;9.63;;;7.27;;
17937;SDS011;16051;53.024;8.630;2022-11-20T08:57:35;9.53;;;6.90;;
17937;SDS011;16051;53.024;8.630;2022-11-20T09:01:38;10.40;;;6.93;;
17937;SDS011;16051;53.024;8.630;2022-11-20T09:05:40;11.10;;;7.17;;
17937;SDS011;16051;53.024;8.630;2022-11-20T09:09:58;8.80;;;6.40;;
17937;SDS011;16051;53.024;8.630;2022-11-20T09:14:02;11.23;;;7.40;;
17937;SDS011;16051;53.024;8.630;2022-11-20T09:18:04;8.87;;;6.90;;
17937;SDS011;16051;53.024;8.630;2022-11-20T09:22:06;7.93;;;6.40;;
17937;SDS011;16051;53.024;8.630;2022-11-20T09:26:09;9.63;;;6.77;;
17937;SDS011;16051;53.024;8.630;2022-11-20T09:30:23;9.13;;;6.57;;
17937;SDS011;16051;53.024;8.630;2022-11-20T09:34:26;9.33;;;6.47;;
17937;SDS011;16051;53.024;8.630;2022-11-20T09:38:28;7.70;;;6.30;;
17937;SDS011;16051;53.024;8.630;2022-11-20T09:42:32;11.20;;;6.57;;
17937;SDS011;16051;53.024;8.630;2022-11-20T09:46:45;9.77;;;7.03;;
17937;SDS011;16051;53.024;8.630;2022-11-20T09:50:56;10.27;;;6.90;;
17937;SDS011;16051;53.024;8.630;2022-11-20T09:55:10;9.83;;;6.50;;
17937;SDS011;16051;53.024;8.630;2022-11-20T09:59:21;8.17;;;5.77;;
17937;SDS011;16051;53.024;8.630;2022-11-20T10:03:44;11.57;;;6.90;;
17937;SDS011;16051;53.024;8.630;2022-11-20T10:08:06;9.77;;;6.77;;
17937;SDS011;16051;53.024;8.630;2022-11-20T10:12:23;9.17;;;6.33;;
17937;SDS011;16051;53.024;8.630;2022-11-20T10:16:40;10.67;;;6.70;;
17937;SDS011;16051;53.024;8.630;2022-11-20T10:20:55;10.53;;;6.10;;
17937;SDS011;16051;53.024;8.630;2022-11-20T10:25:12;11.93;;;6.57;;
17937;SDS011;16051;53.024;8.630;2022-11-20T10:29:17;9.17;;;5.83;;
17937;SDS011;16051;53.024;8.630;2022-11-20T10:33:45;10.10;;;7.13;;
17937;SDS011;16051;53.024;8.630;2022-11-20T10:37:56;11.33;;;7.47;;
17937;SDS011;16051;53.024;8.630;2022-11-20T10:42:03;7.27;;;5.83;;
17937;SDS011;16051;53.024;8.630;2022-11-20T10:46:14;9.47;;;6.60;;
17937;SDS011;16051;53.024;8.630;2022-11-20T10:55:10;9.77;;;7.40;;
17937;SDS011;16051;53.024;8.630;2022-11-20T10:59:32;11.80;;;6.70;;
17937;SDS011;16051;53.024;8.630;2022-11-20T11:03:52;8.87;;;6.27;;
17937;SDS011;16051;53.024;8.630;2022-11-20T11:07:57;9.93;;;6.67;;
17937;SDS011;16051;53.024;8.630;2022-11-20T11:12:02;10.33;;;7.20;;
17937;SDS011;16051;53.024;8.630;2022-11-20T11:16:16;10.67;;;7.03;;
17937;SDS011;16051;53.024;8.630;2022-11-20T11:20:24;7.63;;;6.00;;
17937;SDS011;16051;53.024;8.630;2022-11-20T11:24:28;8.90;;;6.47;;
17937;SDS011;16051;53.024;8.630;2022-11-20T11:28:32;8.03;;;6.33;;
17937;SDS011;16051;53.024;8.630;2022-11-20T11:32:35;8.73;;;6.83;;
17937;SDS011;16051;53.024;8.630;2022-11-20T11:36:55;8.87;;;6.17;;
17937;SDS011;16051;53.024;8.630;2022-11-20T11:40:59;7.27;;;5.47;;
17937;SDS011;16051;53.024;8.630;2022-11-20T11:45:06;8.57;;;6.07;;
17937;SDS011;16051;53.024;8.630;2022-11-20T11:49:17;6.80;;;5.30;;
17937;SDS011;16051;53.024;8.630;2022-11-20T11:53:21;7.40;;;5.70;;
17937;SDS011;16051;53.024;8.630;2022-11-20T11:57:37;10.23;;;7.20;;
17937;SDS011;16051;53.024;8.630;2022-11-20T12:01:50;9.77;;;6.87;;
17937;SDS011;16051;53.024;8.630;2022-11-20T12:06:10;10.77;;;6.97;;
17937;SDS011;16051;53.024;8.630;2022-11-20T12:10:20;8.87;;;6.53;;
17937;SDS011;16051;53.024;8.630;2022-11-20T12:14:48;9.37;;;6.33;;
17937;SDS011;16051;53.024;8.630;2022-11-20T12:18:57;9.03;;;6.60;;
17937;SDS011;16051;53.024;8.630;2022-11-20T12:23:01;11.87;;;6.83;;
17937;SDS011;16051;53.024;8.630;2022-11-20T12:32:23;9.53;;;6.77;;
17937;SDS011;16051;53.024;8.630;2022-11-20T12:36:54;12.20;;;7.83;;
17937;SDS011;16051;53.024;8.630;2022-11-20T12:41:18;10.30;;;7.87;;
17937;SDS011;16051;53.024;8.630;2022-11-20T12:46:08;11.83;;;7.73;;
17937;SDS011;16051;53.024;8.630;2022-11-20T12:50:33;8.70;;;5.93;;
17937;SDS011;16051;53.024;8.630;2022-11-20T12:55:02;7.10;;;5.27;;
17937;SDS011;16051;53.024;8.630;2022-11-20T12:59:29;7.83;;;5.83;;
17937;SDS011;16051;53.024;8.630;2022-11-20T13:04:12;9.93;;;5.60;;
17937;SDS011;16051;53.024;8.630;2022-11-20T13:08:34;5.97;;;4.60;;
17937;SDS011;16051;53.024;8.630;2022-11-20T13:12:42;7.63;;;5.50;;
17937;SDS011;16051;53.024;8.630;2022-11-20T13:16:50;8.00;;;4.70;;
17937;SDS011;16051;53.024;8.630;2022-11-20T13:21:00;5.77;;;4.93;;
17937;SDS011;16051;53.024;8.630;2022-11-20T13:25:02;6.20;;;4.30;;
17937;SDS011;16051;53.024;8.630;2022-11-20T13:29:09;6.50;;;4.33;;
17937;SDS011;16051;53.024;8.630;2022-11-20T13:33:22;6.90;;;4.60;;
17937;SDS011;16051;53.024;8.630;2022-11-20T13:37:31;7.17;;;4.60;;
17937;SDS011;16051;53.024;8.630;2022-11-20T13:41:36;11.43;;;7.70;;
17937;SDS011;16051;53.024;8.630;2022-11-20T13:45:41;17.10;;;9.20;;
17937;SDS011;16051;53.024;8.630;2022-11-20T13:49:57;13.37;;;8.70;;
17937;SDS011;16051;53.024;8.630;2022-11-20T13:54:06;10.93;;;7.10;;
17937;SDS011;16051;53.024;8.630;2022-11-20T13:58:49;9.03;;;6.57;;
17937;SDS011;16051;53.024;8.630;2022-11-20T14:03:19;7.93;;;6.07;;
17937;SDS011;16051;53.024;8.630;2022-11-20T14:07:27;11.70;;;7.67;;
17937;SDS011;16051;53.024;8.630;2022-11-20T14:11:45;13.17;;;9.63;;
17937;SDS011;16051;53.024;8.630;2022-11-20T14:15:48;10.17;;;8.10;;
17937;SDS011;16051;53.024;8.630;2022-11-20T14:20:00;11.43;;;8.30;;
17937;SDS011;16051;53.024;8.630;2022-11-20T14:24:09;8.87;;;6.60;;
17937;SDS011;16051;53.024;8.630;2022-11-20T14:28:18;8.80;;;6.77;;
17937;SDS011;16051;53.024;8.630;2022-11-20T14:32:30;9.53;;;6.67;;
17937;SDS011;16051;53.024;8.630;2022-11-20T14:36:44;9.10;;;6.47;;
17937;SDS011;16051;53.024;8.630;2022-11-20T14:40:47;34.10;;;18.90;;
17937;SDS011;16051;53.024;8.630;2022-11-20T14:44:49;13.93;;;10.83;;
17937;SDS011;16051;53.024;8.630;2022-11-20T14:48:55;9.80;;;7.33;;
17937;SDS011;16051;53.024;8.630;2022-11-20T14:53:02;11.10;;;7.83;;
17937;SDS011;16051;53.024;8.630;2022-11-20T14:57:20;9.83;;;7.97;;
17937;SDS011;16051;53.024;8.630;2022-11-20T15:01:25;12.53;;;8.10;;
17937;SDS011;16051;53.024;8.630;2022-11-20T15:05:44;11.53;;;8.20;;
17937;SDS011;16051;53.024;8.630;2022-11-20T15:09:59;9.87;;;7.90;;
17937;SDS011;16051;53.024;8.630;2022-11-20T15:14:05;11.37;;;6.90;;
17937;SDS011;16051;53.024;8.630;2022-11-20T15:18:10;8.50;;;6.07;;
17937;SDS011;16051;53.024;8.630;2022-11-20T15:22:15;12.30;;;8.03;;
17937;SDS011;16051;53.024;8.630;2022-11-20T15:26:20;10.63;;;7.83;;
17937;SDS011;16051;53.024;8.630;2022-11-20T15:30:25;10.67;;;8.10;;
17937;SDS011;16051;53.024;8.630;2022-11-20T15:34:27;17.23;;;11.50;;
17937;SDS011;16051;53.024;8.630;2022-11-20T15:38:30;14.20;;;10.10;;
17937;SDS011;16051;53.024;8.630;2022-11-20T15:42:33;28.73;;;16.47;;
17937;SDS011;16051;53.024;8.630;2022-11-20T15:46:45;17.87;;;11.37;;
17937;SDS011;16051;53.024;8.630;2022-11-20T15:50:49;20.60;;;12.93;;
17937;SDS011;16051;53.024;8.630;2022-11-20T15:54:57;12.40;;;8.80;;
17937;SDS011;16051;53.024;8.630;2022-11-20T15:59:00;10.50;;;7.50;;
17937;SDS011;16051;53.024;8.630;2022-11-20T16:03:02;26.77;;;17.50;;
17937;SDS011;16051;53.024;8.630;2022-11-20T16:07:04;16.40;;;10.97;;
17937;SDS011;16051;53.024;8.630;2022-11-20T16:11:06;10.90;;;8.63;;
17937;SDS011;16051;53.024;8.630;2022-11-20T16:15:14;10.30;;;7.10;;
17937;SDS011;16051;53.024;8.630;2022-11-20T16:19:34;9.60;;;7.57;;
17937;SDS011;16051;53.024;8.630;2022-11-20T16:23:36;10.47;;;7.63;;
17937;SDS011;16051;53.024;8.630;2022-11-20T16:27:38;10.77;;;7.57;;
17937;SDS011;16051;53.024;8.630;2022-11-20T16:31:42;14.17;;;9.40;;
17937;SDS011;16051;53.024;8.630;2022-11-20T16:35:44;12.90;;;8.53;;
17937;SDS011;16051;53.024;8.630;2022-11-20T16:39:46;14.77;;;8.37;;
17937;SDS011;16051;53.024;8.630;2022-11-20T16:43:49;9.17;;;7.50;;
17937;SDS011;16051;53.024;8.630;2022-11-20T16:47:54;13.17;;;9.20;;
17937;SDS011;16051;53.024;8.630;2022-11-20T16:52:04;14.10;;;10.20;;
17937;SDS011;16051;53.024;8.630;2022-11-20T16:56:10;13.97;;;9.67;;
17937;SDS011;16051;53.024;8.630;2022-11-20T17:00:15;19.10;;;13.23;;
17937;SDS011;16051;53.024;8.630;2022-11-20T17:04:18;27.03;;;16.10;;
17937;SDS011;16051;53.024;8.630;2022-11-20T17:08:21;16.20;;;11.47;;
17937;SDS011;16051;53.024;8.630;2022-11-20T17:12:23;14.57;;;11.10;;
17937;SDS011;16051;53.024;8.630;2022-11-20T17:16:32;13.43;;;9.93;;
17937;SDS011;16051;53.024;8.630;2022-11-20T17:20:37;12.87;;;8.97;;
17937;SDS011;16051;53.024;8.630;2022-11-20T17:24:39;13.23;;;9.10;;
17937;SDS011;16051;53.024;8.630;2022-11-20T17:28:43;19.00;;;11.83;;
17937;SDS011;16051;53.024;8.630;2022-11-20T17:32:46;16.20;;;10.37;;
17937;SDS011;16051;53.024;8.630;2022-11-20T17:36:50;14.90;;;9.93;;
17937;SDS011;16051;53.024;8.630;2022-11-20T17:40:53;16.93;;;11.13;;
17937;SDS011;16051;53.024;8.630;2022-11-20T17:49:16;26.53;;;18.00;;
17937;SDS011;16051;53.024;8.630;2022-11-20T17:53:20;30.93;;;21.23;;
17937;SDS011;16051;53.024;8.630;2022-11-20T17:57:31;30.30;;;19.43;;
17937;SDS011;16051;53.024;8.630;2022-11-20T18:01:50;24.00;;;17.80;;
17937;SDS011;16051;53.024;8.630;2022-11-20T18:05:53;24.90;;;16.23;;
17937;SDS011;16051;53.024;8.630;2022-11-20T18:10:02;22.53;;;15.13;;
17937;SDS011;16051;53.024;8.630;2022-11-20T18:14:06;19.10;;;13.43;;
17937;SDS011;16051;53.024;8.630;2022-11-20T18:18:31;18.37;;;12.03;;
17937;SDS011;16051;53.024;8.630;2022-11-20T18:22:35;21.33;;;13.70;;
17937;SDS011;16051;53.024;8.630;2022-11-20T18:26:39;19.93;;;14.80;;
17937;SDS011;16051;53.024;8.630;2022-11-20T18:30:41;20.73;;;13.23;;
17937;SDS011;16051;53.024;8.630;2022-11-20T18:34:43;19.63;;;14.67;;
17937;SDS011;16051;53.024;8.630;2022-11-20T18:38:46;21.50;;;13.93;;
17937;SDS011;16051;53.024;8.630;2022-11-20T18:42:53;18.13;;;13.30;;
17937;SDS011;16051;53.024;8.630;2022-11-20T18:47:19;19.27;;;13.83;;
17937;SDS011;16051;53.024;8.630;2022-11-20T18:51:23;17.40;;;12.37;;
17937;SDS011;16051;53.024;8.630;2022-11-20T18:55:34;16.10;;;11.90;;
17937;SDS011;16051;53.024;8.630;2022-11-20T18:59:37;20.73;;;12.20;;
17937;SDS011;16051;53.024;8.630;2022-11-20T19:03:40;16.10;;;11.20;;
17937;SDS011;16051;53.024;8.630;2022-11-20T19:07:42;19.20;;;12.67;;
17937;SDS011;16051;53.024;8.630;2022-11-20T19:11:44;15.70;;;11.70;;
17937;SDS011;16051;53.024;8.630;2022-11-20T19:15:51;19.07;;;12.33;;
17937;SDS011;16051;53.024;8.630;2022-11-20T19:19:53;17.33;;;12.00;;
17937;SDS011;16051;53.024;8.630;2022-11-20T19:24:03;17.93;;;12.30;;
17937;SDS011;16051;53.024;8.630;2022-11-20T19:28:06;16.90;;;12.20;;
17937;SDS011;16051;53.024;8.630;2022-11-20T19:32:09;17.57;;;12.00;;
17937;SDS011;16051;53.024;8.630;2022-11-20T19:36:13;20.03;;;13.57;;
17937;SDS011;16051;53.024;8.630;2022-11-20T19:40:17;18.17;;;12.47;;
17937;SDS011;16051;53.024;8.630;2022-11-20T19:44:19;19.03;;;13.10;;
17937;SDS011;16051;53.024;8.630;2022-11-20T19:48:31;18.37;;;12.33;;
17937;SDS011;16051;53.024;8.630;2022-11-20T19:52:35;18.27;;;12.70;;
17937;SDS011;16051;53.024;8.630;2022-11-20T19:56:45;21.10;;;13.90;;
17937;SDS011;16051;53.024;8.630;2022-11-20T20:00:48;18.70;;;13.27;;
17937;SDS011;16051;53.024;8.630;2022-11-20T20:04:52;20.20;;;13.67;;
17937;SDS011;16051;53.024;8.630;2022-11-20T20:09:03;21.67;;;13.33;;
17937;SDS011;16051;53.024;8.630;2022-11-20T20:13:08;22.17;;;14.33;;
17937;SDS011;16051;53.024;8.630;2022-11-20T20:17:10;19.20;;;13.70;;
17937;SDS011;16051;53.024;8.630;2022-11-20T20:21:14;18.33;;;12.80;;
17937;SDS011;16051;53.024;8.630;2022-11-20T20:25:17;20.57;;;14.07;;
17937;SDS011;16051;53.024;8.630;2022-11-20T20:29:29;15.60;;;11.53;;
17937;SDS011;16051;53.024;8.630;2022-11-20T20:33:31;17.30;;;11.13;;
17937;SDS011;16051;53.024;8.630;2022-11-20T20:37:35;17.97;;;12.63;;
17937;SDS011;16051;53.024;8.630;2022-11-20T20:41:37;19.27;;;12.90;;
17937;SDS011;16051;53.024;8.630;2022-11-20T20:45:43;22.27;;;15.27;;
17937;SDS011;16051;53.024;8.630;2022-11-20T20:49:50;27.97;;;17.53;;
17937;SDS011;16051;53.024;8.630;2022-11-20T20:53:54;27.13;;;18.67;;
17937;SDS011;16051;53.024;8.630;2022-11-20T20:57:59;35.30;;;24.73;;
17937;SDS011;16051;53.024;8.630;2022-11-20T21:02:01;25.80;;;18.23;;
17937;SDS011;16051;53.024;8.630;2022-11-20T21:06:04;23.57;;;15.43;;
17937;SDS011;16051;53.024;8.630;2022-11-20T21:10:10;19.23;;;14.67;;
17937;SDS011;16051;53.024;8.630;2022-11-20T21:14:12;19.43;;;14.30;;
17937;SDS011;16051;53.024;8.630;2022-11-20T21:18:15;21.63;;;14.83;;
17937;SDS011;16051;53.024;8.630;2022-11-20T21:22:19;19.13;;;14.27;;
17937;SDS011;16051;53.024;8.630;2022-11-20T21:26:22;19.73;;;14.70;;
17937;SDS011;16051;53.024;8.630;2022-11-20T21:30:24;20.67;;;13.63;;
17937;SDS011;16051;53.024;8.630;2022-11-20T21:34:26;18.53;;;13.13;;
17937;SDS011;16051;53.024;8.630;2022-11-20T21:38:29;20.83;;;13.17;;
17937;SDS011;16051;53.024;8.630;2022-11-20T21:42:33;21.03;;;14.33;;
17937;SDS011;16051;53.024;8.630;2022-11-20T21:46:36;18.10;;;12.70;;
17937;SDS011;16051;53.024;8.630;2022-11-20T21:50:41;16.87;;;12.70;;
17937;SDS011;16051;53.024;8.630;2022-11-20T21:54:43;18.60;;;13.70;;
17937;SDS011;16051;53.024;8.630;2022-11-20T21:58:46;33.10;;;20.27;;
17937;SDS011;16051;53.024;8.630;2022-11-20T22:02:49;30.27;;;20.27;;
17937;SDS011;16051;53.024;8.630;2022-11-20T22:06:51;41.40;;;27.57;;
17937;SDS011;16051;53.024;8.630;2022-11-20T22:10:53;29.83;;;20.20;;
17937;SDS011;16051;53.024;8.630;2022-11-20T22:24:52;20.00;;;13.77;;
17937;SDS011;16051;53.024;8.630;2022-11-20T22:28:55;17.37;;;12.10;;
17937;SDS011;16051;53.024;8.630;2022-11-20T22:32:58;19.77;;;12.80;;
17937;SDS011;16051;53.024;8.630;2022-11-20T22:37:02;17.07;;;12.00;;
17937;SDS011;16051;53.024;8.630;2022-11-20T22:41:05;17.30;;;11.67;;
17937;SDS011;16051;53.024;8.630;2022-11-20T22:45:09;17.87;;;12.20;;
17937;SDS011;16051;53.024;8.630;2022-11-20T22:49:12;18.50;;;12.70;;
17937;SDS011;16051;53.024;8.630;2022-11-20T23:02:08;20.77;;;12.87;;
17937;SDS011;16051;53.024;8.630;2022-11-20T23:06:10;19.63;;;13.53;;
17937;SDS011;16051;53.024;8.630;2022-11-20T23:14:41;19.37;;;12.97;;
17937;SDS011;16051;53.024;8.630;2022-11-20T23:18:43;19.47;;;13.70;;
17937;SDS011;16051;53.024;8.630;2022-11-20T23:22:55;19.00;;;12.53;;
17937;SDS011;16051;53.024;8.630;2022-11-20T23:26:58;21.90;;;12.63;;
17937;SDS011;16051;53.024;8.630;2022-11-20T23:31:01;20.43;;;12.77;;
17937;SDS011;16051;53.024;8.630;2022-11-20T23:35:04;17.27;;;12.90;;
17937;SDS011;16051;53.024;8.630;2022-11-20T23:39:07;18.73;;;12.73;;
17937;SDS011;16051;53.024;8.630;2022-11-20T23:43:10;21.37;;;12.63;;
17937;SDS011;16051;53.024;8.630;2022-11-20T23:47:16;18.60;;;12.40;;
17937;SDS011;16051;53.024;8.630;2022-11-20T23:51:18;18.00;;;12.47;;
17937;SDS011;16051;53.024;8.630;2022-11-20T23:55:20;19.57;;;13.10;;
17937;SDS011;16051;53.024;8.630;2022-11-20T23:59:24;17.57;;;12.33;;
